sensor_id;sensor_type;location;lat;lon;timestamp;temperature;humidity
40636;DHT22;26642;55.766;37.828;2023-06-14T00:02:11;20.00;50.90
40636;DHT22;26642;55.766;37.828;2023-06-14T00:04:37;20.00;51.40
40636;DHT22;26642;55.766;37.828;2023-06-14T00:07:05;19.90;51.60
40636;DHT22;26642;55.766;37.828;2023-06-14T00:09:34;19.90;51.40
40636;DHT22;26642;55.766;37.828;2023-06-14T00:12:01;19.90;51.50
40636;DHT22;26642;55.766;37.828;2023-06-14T00:14:27;19.80;52.00
40636;DHT22;26642;55.766;37.828;2023-06-14T00:16:53;19.80;51.40
40636;DHT22;26642;55.766;37.828;2023-06-14T00:19:20;19.80;51.40
40636;DHT22;26642;55.766;37.828;2023-06-14T00:21:46;19.80;51.50
40636;DHT22;26642;55.766;37.828;2023-06-14T00:24:12;19.70;51.70
40636;DHT22;26642;55.766;37.828;2023-06-14T00:26:38;19.70;51.80
40636;DHT22;26642;55.766;37.828;2023-06-14T00:29:04;19.70;52.10
40636;DHT22;26642;55.766;37.828;2023-06-14T00:31:30;19.60;52.50
40636;DHT22;26642;55.766;37.828;2023-06-14T00:33:56;19.60;53.00
40636;DHT22;26642;55.766;37.828;2023-06-14T00:36:22;19.60;53.30
40636;DHT22;26642;55.766;37.828;2023-06-14T00:38:48;19.50;53.40
40636;DHT22;26642;55.766;37.828;2023-06-14T00:41:14;19.50;53.50
40636;DHT22;26642;55.766;37.828;2023-06-14T00:43:42;19.50;53.10
40636;DHT22;26642;55.766;37.828;2023-06-14T00:46:08;19.50;53.00
40636;DHT22;26642;55.766;37.828;2023-06-14T00:48:34;19.50;53.40
40636;DHT22;26642;55.766;37.828;2023-06-14T00:51:01;19.40;53.40
40636;DHT22;26642;55.766;37.828;2023-06-14T00:53:30;19.40;53.30
40636;DHT22;26642;55.766;37.828;2023-06-14T00:55:59;19.30;53.90
40636;DHT22;26642;55.766;37.828;2023-06-14T00:58:26;19.30;53.20
40636;DHT22;26642;55.766;37.828;2023-06-14T01:00:53;19.30;53.10
40636;DHT22;26642;55.766;37.828;2023-06-14T01:03:20;19.30;53.00
40636;DHT22;26642;55.766;37.828;2023-06-14T01:05:51;19.30;52.90
40636;DHT22;26642;55.766;37.828;2023-06-14T01:11:18;19.30;52.90
40636;DHT22;26642;55.766;37.828;2023-06-14T01:13:48;19.30;53.20
40636;DHT22;26642;55.766;37.828;2023-06-14T01:16:16;19.30;54.00
40636;DHT22;26642;55.766;37.828;2023-06-14T01:18:44;19.30;54.40
40636;DHT22;26642;55.766;37.828;2023-06-14T01:21:25;19.30;53.70
40636;DHT22;26642;55.766;37.828;2023-06-14T01:23:52;19.30;53.40
40636;DHT22;26642;55.766;37.828;2023-06-14T01:26:22;19.30;53.40
40636;DHT22;26642;55.766;37.828;2023-06-14T01:28:51;19.30;54.20
40636;DHT22;26642;55.766;37.828;2023-06-14T01:31:20;19.30;53.90
40636;DHT22;26642;55.766;37.828;2023-06-14T01:33:49;19.30;54.10
40636;DHT22;26642;55.766;37.828;2023-06-14T01:36:18;19.40;53.90
40636;DHT22;26642;55.766;37.828;2023-06-14T01:38:45;19.40;53.50
40636;DHT22;26642;55.766;37.828;2023-06-14T01:41:12;19.40;53.80
40636;DHT22;26642;55.766;37.828;2023-06-14T01:43:39;19.50;53.70
40636;DHT22;26642;55.766;37.828;2023-06-14T01:46:06;19.40;53.10
40636;DHT22;26642;55.766;37.828;2023-06-14T01:48:34;19.40;53.40
40636;DHT22;26642;55.766;37.828;2023-06-14T01:51:00;19.40;52.80
40636;DHT22;26642;55.766;37.828;2023-06-14T01:53:26;19.40;52.80
40636;DHT22;26642;55.766;37.828;2023-06-14T01:55:52;19.40;52.80
40636;DHT22;26642;55.766;37.828;2023-06-14T01:58:19;19.40;52.80
40636;DHT22;26642;55.766;37.828;2023-06-14T02:00:46;19.40;52.80
40636;DHT22;26642;55.766;37.828;2023-06-14T02:03:13;19.40;52.90
40636;DHT22;26642;55.766;37.828;2023-06-14T02:05:39;19.40;52.90
40636;DHT22;26642;55.766;37.828;2023-06-14T02:08:06;19.40;53.00
40636;DHT22;26642;55.766;37.828;2023-06-14T02:10:32;19.40;53.00
40636;DHT22;26642;55.766;37.828;2023-06-14T02:12:58;19.40;53.10
40636;DHT22;26642;55.766;37.828;2023-06-14T02:15:24;19.50;53.00
40636;DHT22;26642;55.766;37.828;2023-06-14T02:17:50;19.50;53.00
40636;DHT22;26642;55.766;37.828;2023-06-14T02:20:17;19.60;52.90
40636;DHT22;26642;55.766;37.828;2023-06-14T02:22:43;19.70;52.70
40636;DHT22;26642;55.766;37.828;2023-06-14T02:25:09;19.80;52.60
40636;DHT22;26642;55.766;37.828;2023-06-14T02:27:36;19.90;52.50
40636;DHT22;26642;55.766;37.828;2023-06-14T02:30:03;20.00;52.50
40636;DHT22;26642;55.766;37.828;2023-06-14T02:32:32;20.10;52.30
40636;DHT22;26642;55.766;37.828;2023-06-14T02:34:59;20.30;52.40
40636;DHT22;26642;55.766;37.828;2023-06-14T02:37:25;20.30;52.20
40636;DHT22;26642;55.766;37.828;2023-06-14T02:39:52;20.50;52.10
40636;DHT22;26642;55.766;37.828;2023-06-14T02:42:18;20.60;52.00
40636;DHT22;26642;55.766;37.828;2023-06-14T02:44:44;20.70;51.60
40636;DHT22;26642;55.766;37.828;2023-06-14T02:47:12;20.80;51.20
40636;DHT22;26642;55.766;37.828;2023-06-14T02:49:38;20.90;50.90
40636;DHT22;26642;55.766;37.828;2023-06-14T02:52:04;21.10;50.60
40636;DHT22;26642;55.766;37.828;2023-06-14T02:54:30;21.20;50.30
40636;DHT22;26642;55.766;37.828;2023-06-14T02:56:58;21.30;50.00
40636;DHT22;26642;55.766;37.828;2023-06-14T02:59:24;21.40;49.80
40636;DHT22;26642;55.766;37.828;2023-06-14T03:01:53;21.50;49.70
40636;DHT22;26642;55.766;37.828;2023-06-14T03:04:19;21.60;49.80
40636;DHT22;26642;55.766;37.828;2023-06-14T03:06:47;21.70;49.70
40636;DHT22;26642;55.766;37.828;2023-06-14T03:09:18;21.70;49.80
40636;DHT22;26642;55.766;37.828;2023-06-14T03:11:46;21.70;50.00
40636;DHT22;26642;55.766;37.828;2023-06-14T03:14:11;21.80;50.10
40636;DHT22;26642;55.766;37.828;2023-06-14T03:16:39;21.80;49.90
40636;DHT22;26642;55.766;37.828;2023-06-14T03:19:08;21.80;49.80
40636;DHT22;26642;55.766;37.828;2023-06-14T03:21:35;21.90;49.60
40636;DHT22;26642;55.766;37.828;2023-06-14T03:24:02;22.00;49.40
40636;DHT22;26642;55.766;37.828;2023-06-14T03:26:29;22.10;49.50
40636;DHT22;26642;55.766;37.828;2023-06-14T03:28:58;22.20;49.40
40636;DHT22;26642;55.766;37.828;2023-06-14T03:31:25;22.30;49.90
40636;DHT22;26642;55.766;37.828;2023-06-14T03:33:51;22.40;49.10
40636;DHT22;26642;55.766;37.828;2023-06-14T03:36:19;22.50;49.00
40636;DHT22;26642;55.766;37.828;2023-06-14T03:38:52;22.70;48.90
40636;DHT22;26642;55.766;37.828;2023-06-14T03:41:18;22.80;48.80
40636;DHT22;26642;55.766;37.828;2023-06-14T03:43:44;22.90;48.60
40636;DHT22;26642;55.766;37.828;2023-06-14T03:46:10;23.00;48.80
40636;DHT22;26642;55.766;37.828;2023-06-14T03:48:36;23.00;48.50
40636;DHT22;26642;55.766;37.828;2023-06-14T03:51:03;23.10;48.60
40636;DHT22;26642;55.766;37.828;2023-06-14T03:53:30;23.20;48.50
40636;DHT22;26642;55.766;37.828;2023-06-14T03:55:57;23.30;48.40
40636;DHT22;26642;55.766;37.828;2023-06-14T03:58:30;23.40;48.20
40636;DHT22;26642;55.766;37.828;2023-06-14T04:00:57;23.60;48.10
40636;DHT22;26642;55.766;37.828;2023-06-14T04:03:24;23.60;48.10
40636;DHT22;26642;55.766;37.828;2023-06-14T04:05:51;23.70;48.00
40636;DHT22;26642;55.766;37.828;2023-06-14T04:08:18;23.90;47.90
40636;DHT22;26642;55.766;37.828;2023-06-14T04:10:45;23.90;47.80
40636;DHT22;26642;55.766;37.828;2023-06-14T04:13:11;24.00;47.80
40636;DHT22;26642;55.766;37.828;2023-06-14T04:15:39;24.10;47.70
40636;DHT22;26642;55.766;37.828;2023-06-14T04:18:08;24.20;47.60
40636;DHT22;26642;55.766;37.828;2023-06-14T04:20:34;24.30;47.40
40636;DHT22;26642;55.766;37.828;2023-06-14T04:23:15;24.40;47.30
40636;DHT22;26642;55.766;37.828;2023-06-14T04:25:44;24.50;47.00
40636;DHT22;26642;55.766;37.828;2023-06-14T04:28:12;24.70;46.90
40636;DHT22;26642;55.766;37.828;2023-06-14T04:30:42;24.80;46.70
40636;DHT22;26642;55.766;37.828;2023-06-14T04:33:08;24.80;46.50
40636;DHT22;26642;55.766;37.828;2023-06-14T04:35:36;24.90;46.40
40636;DHT22;26642;55.766;37.828;2023-06-14T04:38:04;25.00;46.20
40636;DHT22;26642;55.766;37.828;2023-06-14T04:40:32;25.10;46.20
40636;DHT22;26642;55.766;37.828;2023-06-14T04:42:59;25.10;46.10
40636;DHT22;26642;55.766;37.828;2023-06-14T04:45:27;25.20;46.70
40636;DHT22;26642;55.766;37.828;2023-06-14T04:48:00;25.30;46.00
40636;DHT22;26642;55.766;37.828;2023-06-14T04:50:27;25.30;45.80
40636;DHT22;26642;55.766;37.828;2023-06-14T04:52:55;25.40;45.80
40636;DHT22;26642;55.766;37.828;2023-06-14T04:55:23;25.50;45.80
40636;DHT22;26642;55.766;37.828;2023-06-14T04:57:51;25.60;45.70
40636;DHT22;26642;55.766;37.828;2023-06-14T05:00:20;25.60;45.50
40636;DHT22;26642;55.766;37.828;2023-06-14T05:02:47;25.60;45.40
40636;DHT22;26642;55.766;37.828;2023-06-14T05:05:17;25.70;45.30
40636;DHT22;26642;55.766;37.828;2023-06-14T05:07:43;25.80;45.30
40636;DHT22;26642;55.766;37.828;2023-06-14T05:10:09;25.90;45.20
40636;DHT22;26642;55.766;37.828;2023-06-14T05:12:36;26.00;45.10
40636;DHT22;26642;55.766;37.828;2023-06-14T05:15:04;26.00;45.00
40636;DHT22;26642;55.766;37.828;2023-06-14T05:17:30;26.10;44.90
40636;DHT22;26642;55.766;37.828;2023-06-14T05:19:56;26.20;44.80
40636;DHT22;26642;55.766;37.828;2023-06-14T05:22:23;26.20;44.60
40636;DHT22;26642;55.766;37.828;2023-06-14T05:24:50;26.30;44.60
40636;DHT22;26642;55.766;37.828;2023-06-14T05:27:16;26.40;44.40
40636;DHT22;26642;55.766;37.828;2023-06-14T05:29:42;26.40;44.30
40636;DHT22;26642;55.766;37.828;2023-06-14T05:32:08;26.40;44.10
40636;DHT22;26642;55.766;37.828;2023-06-14T05:34:34;26.50;44.00
40636;DHT22;26642;55.766;37.828;2023-06-14T05:37:00;26.60;44.00
40636;DHT22;26642;55.766;37.828;2023-06-14T05:39:26;26.60;43.90
40636;DHT22;26642;55.766;37.828;2023-06-14T05:41:52;26.70;43.90
40636;DHT22;26642;55.766;37.828;2023-06-14T05:44:18;26.80;43.80
40636;DHT22;26642;55.766;37.828;2023-06-14T05:46:44;26.80;43.80
40636;DHT22;26642;55.766;37.828;2023-06-14T05:49:10;26.90;43.70
40636;DHT22;26642;55.766;37.828;2023-06-14T05:51:37;26.90;43.60
40636;DHT22;26642;55.766;37.828;2023-06-14T05:54:03;27.00;43.40
40636;DHT22;26642;55.766;37.828;2023-06-14T05:56:29;27.00;43.20
40636;DHT22;26642;55.766;37.828;2023-06-14T05:58:55;27.00;43.10
40636;DHT22;26642;55.766;37.828;2023-06-14T06:01:21;27.10;42.80
40636;DHT22;26642;55.766;37.828;2023-06-14T06:03:47;27.20;42.70
40636;DHT22;26642;55.766;37.828;2023-06-14T06:06:13;27.20;42.60
40636;DHT22;26642;55.766;37.828;2023-06-14T06:08:40;27.30;42.50
40636;DHT22;26642;55.766;37.828;2023-06-14T06:11:06;27.30;42.20
40636;DHT22;26642;55.766;37.828;2023-06-14T06:13:32;27.30;42.10
40636;DHT22;26642;55.766;37.828;2023-06-14T06:15:58;27.30;42.10
40636;DHT22;26642;55.766;37.828;2023-06-14T06:18:24;27.30;42.00
40636;DHT22;26642;55.766;37.828;2023-06-14T06:20:50;27.30;42.00
40636;DHT22;26642;55.766;37.828;2023-06-14T06:23:17;27.30;41.90
40636;DHT22;26642;55.766;37.828;2023-06-14T06:25:43;27.40;41.80
40636;DHT22;26642;55.766;37.828;2023-06-14T06:28:09;27.40;41.40
40636;DHT22;26642;55.766;37.828;2023-06-14T06:30:35;27.50;41.30
40636;DHT22;26642;55.766;37.828;2023-06-14T06:33:02;27.50;41.10
40636;DHT22;26642;55.766;37.828;2023-06-14T06:35:28;27.50;41.00
40636;DHT22;26642;55.766;37.828;2023-06-14T06:37:56;27.50;41.00
40636;DHT22;26642;55.766;37.828;2023-06-14T06:40:22;27.50;41.00
40636;DHT22;26642;55.766;37.828;2023-06-14T06:42:48;27.60;41.10
40636;DHT22;26642;55.766;37.828;2023-06-14T06:45:17;27.50;41.00
40636;DHT22;26642;55.766;37.828;2023-06-14T06:47:43;27.50;41.20
40636;DHT22;26642;55.766;37.828;2023-06-14T06:50:09;27.50;41.00
40636;DHT22;26642;55.766;37.828;2023-06-14T06:52:35;27.60;41.10
40636;DHT22;26642;55.766;37.828;2023-06-14T06:55:02;27.50;41.10
40636;DHT22;26642;55.766;37.828;2023-06-14T06:57:29;27.60;41.10
40636;DHT22;26642;55.766;37.828;2023-06-14T06:59:55;27.60;40.60
40636;DHT22;26642;55.766;37.828;2023-06-14T07:02:21;27.70;40.80
40636;DHT22;26642;55.766;37.828;2023-06-14T07:04:47;27.60;40.70
40636;DHT22;26642;55.766;37.828;2023-06-14T07:07:12;27.60;40.70
40636;DHT22;26642;55.766;37.828;2023-06-14T07:09:38;27.50;40.60
40636;DHT22;26642;55.766;37.828;2023-06-14T07:12:07;27.60;40.50
40636;DHT22;26642;55.766;37.828;2023-06-14T07:14:33;27.60;40.30
40636;DHT22;26642;55.766;37.828;2023-06-14T07:16:59;27.60;40.40
40636;DHT22;26642;55.766;37.828;2023-06-14T07:19:25;27.60;40.00
40636;DHT22;26642;55.766;37.828;2023-06-14T07:21:51;27.60;39.50
40636;DHT22;26642;55.766;37.828;2023-06-14T07:24:19;27.70;40.00
40636;DHT22;26642;55.766;37.828;2023-06-14T07:26:47;27.70;40.00
40636;DHT22;26642;55.766;37.828;2023-06-14T07:29:14;27.60;40.00
40636;DHT22;26642;55.766;37.828;2023-06-14T07:31:40;27.60;39.90
40636;DHT22;26642;55.766;37.828;2023-06-14T07:34:06;27.70;39.50
40636;DHT22;26642;55.766;37.828;2023-06-14T07:36:32;27.60;39.70
40636;DHT22;26642;55.766;37.828;2023-06-14T07:38:58;27.60;39.70
40636;DHT22;26642;55.766;37.828;2023-06-14T07:41:25;27.50;39.90
40636;DHT22;26642;55.766;37.828;2023-06-14T07:43:51;27.50;40.00
40636;DHT22;26642;55.766;37.828;2023-06-14T07:46:17;27.50;40.00
40636;DHT22;26642;55.766;37.828;2023-06-14T07:48:43;27.50;40.00
40636;DHT22;26642;55.766;37.828;2023-06-14T07:51:09;27.40;40.10
40636;DHT22;26642;55.766;37.828;2023-06-14T07:53:36;27.40;40.00
40636;DHT22;26642;55.766;37.828;2023-06-14T07:56:02;27.40;40.00
40636;DHT22;26642;55.766;37.828;2023-06-14T07:58:28;27.40;40.10
40636;DHT22;26642;55.766;37.828;2023-06-14T08:00:54;27.30;40.10
40636;DHT22;26642;55.766;37.828;2023-06-14T08:03:20;27.30;40.10
40636;DHT22;26642;55.766;37.828;2023-06-14T08:05:46;27.30;39.90
40636;DHT22;26642;55.766;37.828;2023-06-14T08:08:12;27.20;39.90
40636;DHT22;26642;55.766;37.828;2023-06-14T08:10:38;27.20;39.80
40636;DHT22;26642;55.766;37.828;2023-06-14T08:13:04;27.20;39.90
40636;DHT22;26642;55.766;37.828;2023-06-14T08:15:30;27.20;40.00
40636;DHT22;26642;55.766;37.828;2023-06-14T08:17:56;27.20;39.90
40636;DHT22;26642;55.766;37.828;2023-06-14T08:20:25;27.10;39.70
40636;DHT22;26642;55.766;37.828;2023-06-14T08:23:05;27.10;39.70
40636;DHT22;26642;55.766;37.828;2023-06-14T08:25:31;27.10;39.70
40636;DHT22;26642;55.766;37.828;2023-06-14T08:27:57;27.00;39.80
40636;DHT22;26642;55.766;37.828;2023-06-14T08:30:22;27.00;39.80
40636;DHT22;26642;55.766;37.828;2023-06-14T08:32:48;27.00;40.10
40636;DHT22;26642;55.766;37.828;2023-06-14T08:35:14;27.00;40.30
40636;DHT22;26642;55.766;37.828;2023-06-14T08:37:41;26.90;39.80
40636;DHT22;26642;55.766;37.828;2023-06-14T08:40:28;26.90;40.00
40636;DHT22;26642;55.766;37.828;2023-06-14T08:42:55;26.90;40.10
40636;DHT22;26642;55.766;37.828;2023-06-14T08:45:22;26.90;40.30
40636;DHT22;26642;55.766;37.828;2023-06-14T08:47:50;26.90;39.40
40636;DHT22;26642;55.766;37.828;2023-06-14T08:50:26;26.80;39.90
40636;DHT22;26642;55.766;37.828;2023-06-14T08:52:58;26.80;39.30
40636;DHT22;26642;55.766;37.828;2023-06-14T08:55:29;26.80;39.80
40636;DHT22;26642;55.766;37.828;2023-06-14T08:57:57;26.70;39.70
40636;DHT22;26642;55.766;37.828;2023-06-14T09:00:25;26.70;39.10
40636;DHT22;26642;55.766;37.828;2023-06-14T09:02:52;26.70;39.50
40636;DHT22;26642;55.766;37.828;2023-06-14T09:05:26;26.60;39.50
40636;DHT22;26642;55.766;37.828;2023-06-14T09:07:53;26.70;39.10
40636;DHT22;26642;55.766;37.828;2023-06-14T09:10:22;26.60;39.60
40636;DHT22;26642;55.766;37.828;2023-06-14T09:12:48;26.60;38.60
40636;DHT22;26642;55.766;37.828;2023-06-14T09:15:14;26.50;38.10
40636;DHT22;26642;55.766;37.828;2023-06-14T09:17:41;26.50;38.30
40636;DHT22;26642;55.766;37.828;2023-06-14T09:20:08;26.40;37.80
40636;DHT22;26642;55.766;37.828;2023-06-14T09:22:37;26.40;39.50
40636;DHT22;26642;55.766;37.828;2023-06-14T09:25:03;26.40;39.30
40636;DHT22;26642;55.766;37.828;2023-06-14T09:27:31;26.40;38.30
40636;DHT22;26642;55.766;37.828;2023-06-14T09:29:57;26.30;37.60
40636;DHT22;26642;55.766;37.828;2023-06-14T09:32:23;26.30;37.80
40636;DHT22;26642;55.766;37.828;2023-06-14T09:34:49;26.20;37.60
40636;DHT22;26642;55.766;37.828;2023-06-14T09:37:31;26.10;37.60
40636;DHT22;26642;55.766;37.828;2023-06-14T09:39:58;26.20;37.90
40636;DHT22;26642;55.766;37.828;2023-06-14T09:42:25;26.10;38.10
40636;DHT22;26642;55.766;37.828;2023-06-14T09:44:52;26.10;38.40
40636;DHT22;26642;55.766;37.828;2023-06-14T09:47:19;26.10;38.10
40636;DHT22;26642;55.766;37.828;2023-06-14T09:49:46;26.10;38.30
40636;DHT22;26642;55.766;37.828;2023-06-14T09:52:17;26.10;37.90
40636;DHT22;26642;55.766;37.828;2023-06-14T09:54:44;26.00;37.70
40636;DHT22;26642;55.766;37.828;2023-06-14T09:57:16;26.00;37.80
40636;DHT22;26642;55.766;37.828;2023-06-14T09:59:44;26.00;37.50
40636;DHT22;26642;55.766;37.828;2023-06-14T10:02:27;26.00;37.50
40636;DHT22;26642;55.766;37.828;2023-06-14T10:07:55;26.00;38.40
40636;DHT22;26642;55.766;37.828;2023-06-14T10:10:22;25.90;38.30
40636;DHT22;26642;55.766;37.828;2023-06-14T10:12:48;26.00;37.70
40636;DHT22;26642;55.766;37.828;2023-06-14T10:15:23;25.90;37.30
40636;DHT22;26642;55.766;37.828;2023-06-14T10:18:05;25.90;37.20
40636;DHT22;26642;55.766;37.828;2023-06-14T10:20:39;25.80;37.20
40636;DHT22;26642;55.766;37.828;2023-06-14T10:23:19;25.80;37.20
40636;DHT22;26642;55.766;37.828;2023-06-14T10:25:50;25.80;37.30
40636;DHT22;26642;55.766;37.828;2023-06-14T10:28:21;25.80;38.00
40636;DHT22;26642;55.766;37.828;2023-06-14T10:31:09;25.80;37.50
40636;DHT22;26642;55.766;37.828;2023-06-14T10:33:41;25.70;37.30
40636;DHT22;26642;55.766;37.828;2023-06-14T10:36:30;25.70;37.70
40636;DHT22;26642;55.766;37.828;2023-06-14T10:39:07;25.70;37.60
40636;DHT22;26642;55.766;37.828;2023-06-14T10:41:38;25.70;37.80
40636;DHT22;26642;55.766;37.828;2023-06-14T10:44:32;25.70;37.80
40636;DHT22;26642;55.766;37.828;2023-06-14T10:46:59;25.70;37.90
40636;DHT22;26642;55.766;37.828;2023-06-14T10:49:38;25.70;38.00
40636;DHT22;26642;55.766;37.828;2023-06-14T10:52:15;25.60;38.30
40636;DHT22;26642;55.766;37.828;2023-06-14T10:57:30;25.70;38.80
40636;DHT22;26642;55.766;37.828;2023-06-14T11:00:04;25.70;38.50
40636;DHT22;26642;55.766;37.828;2023-06-14T11:02:50;25.60;38.20
40636;DHT22;26642;55.766;37.828;2023-06-14T11:05:24;25.60;38.70
40636;DHT22;26642;55.766;37.828;2023-06-14T11:10:37;25.60;38.10
40636;DHT22;26642;55.766;37.828;2023-06-14T11:13:04;25.50;37.60
40636;DHT22;26642;55.766;37.828;2023-06-14T11:15:31;25.60;38.10
40636;DHT22;26642;55.766;37.828;2023-06-14T11:17:57;25.50;38.00
40636;DHT22;26642;55.766;37.828;2023-06-14T11:20:27;25.50;38.50
40636;DHT22;26642;55.766;37.828;2023-06-14T11:22:53;25.50;38.50
40636;DHT22;26642;55.766;37.828;2023-06-14T11:25:20;25.60;38.40
40636;DHT22;26642;55.766;37.828;2023-06-14T11:27:48;25.50;37.80
40636;DHT22;26642;55.766;37.828;2023-06-14T11:30:15;25.50;38.10
40636;DHT22;26642;55.766;37.828;2023-06-14T11:32:41;25.50;38.00
40636;DHT22;26642;55.766;37.828;2023-06-14T11:35:08;25.50;38.10
40636;DHT22;26642;55.766;37.828;2023-06-14T11:37:36;25.50;38.50
40636;DHT22;26642;55.766;37.828;2023-06-14T11:40:08;25.50;38.90
40636;DHT22;26642;55.766;37.828;2023-06-14T11:42:36;25.50;38.90
40636;DHT22;26642;55.766;37.828;2023-06-14T11:45:03;25.50;38.20
40636;DHT22;26642;55.766;37.828;2023-06-14T11:47:32;25.40;38.50
40636;DHT22;26642;55.766;37.828;2023-06-14T11:50:03;25.50;38.60
40636;DHT22;26642;55.766;37.828;2023-06-14T11:52:30;25.40;37.80
40636;DHT22;26642;55.766;37.828;2023-06-14T11:54:57;25.40;38.00
40636;DHT22;26642;55.766;37.828;2023-06-14T11:57:24;25.40;38.30
40636;DHT22;26642;55.766;37.828;2023-06-14T11:59:51;25.40;38.40
40636;DHT22;26642;55.766;37.828;2023-06-14T12:02:18;25.40;38.50
40636;DHT22;26642;55.766;37.828;2023-06-14T12:04:47;25.40;38.40
40636;DHT22;26642;55.766;37.828;2023-06-14T12:07:15;25.40;38.70
40636;DHT22;26642;55.766;37.828;2023-06-14T12:10:03;25.40;38.60
40636;DHT22;26642;55.766;37.828;2023-06-14T12:12:35;25.40;38.90
40636;DHT22;26642;55.766;37.828;2023-06-14T12:15:07;25.40;38.90
40636;DHT22;26642;55.766;37.828;2023-06-14T12:17:34;25.30;38.90
40636;DHT22;26642;55.766;37.828;2023-06-14T12:20:09;25.30;39.00
40636;DHT22;26642;55.766;37.828;2023-06-14T12:22:55;25.40;39.20
40636;DHT22;26642;55.766;37.828;2023-06-14T12:25:32;25.40;39.10
40636;DHT22;26642;55.766;37.828;2023-06-14T12:28:04;25.30;38.30
40636;DHT22;26642;55.766;37.828;2023-06-14T12:30:30;25.20;38.20
40636;DHT22;26642;55.766;37.828;2023-06-14T12:32:56;25.20;38.20
40636;DHT22;26642;55.766;37.828;2023-06-14T12:35:22;25.20;38.30
40636;DHT22;26642;55.766;37.828;2023-06-14T12:37:48;25.20;37.90
40636;DHT22;26642;55.766;37.828;2023-06-14T12:40:14;25.20;38.20
40636;DHT22;26642;55.766;37.828;2023-06-14T12:42:41;25.30;38.50
40636;DHT22;26642;55.766;37.828;2023-06-14T12:45:08;25.30;38.50
40636;DHT22;26642;55.766;37.828;2023-06-14T12:47:34;25.30;39.10
40636;DHT22;26642;55.766;37.828;2023-06-14T12:50:00;25.30;39.60
40636;DHT22;26642;55.766;37.828;2023-06-14T12:52:26;25.30;38.90
40636;DHT22;26642;55.766;37.828;2023-06-14T12:54:52;25.30;38.70
40636;DHT22;26642;55.766;37.828;2023-06-14T12:57:18;25.20;38.40
40636;DHT22;26642;55.766;37.828;2023-06-14T12:59:44;25.20;38.40
40636;DHT22;26642;55.766;37.828;2023-06-14T13:02:17;25.30;38.60
40636;DHT22;26642;55.766;37.828;2023-06-14T13:04:44;25.30;38.90
40636;DHT22;26642;55.766;37.828;2023-06-14T13:07:10;25.20;38.50
40636;DHT22;26642;55.766;37.828;2023-06-14T13:09:37;25.20;38.90
40636;DHT22;26642;55.766;37.828;2023-06-14T13:12:03;25.20;39.10
40636;DHT22;26642;55.766;37.828;2023-06-14T13:14:29;25.20;38.40
40636;DHT22;26642;55.766;37.828;2023-06-14T13:16:55;25.20;38.60
40636;DHT22;26642;55.766;37.828;2023-06-14T13:19:21;25.20;38.50
40636;DHT22;26642;55.766;37.828;2023-06-14T13:21:48;25.20;38.90
40636;DHT22;26642;55.766;37.828;2023-06-14T13:24:14;25.20;39.30
40636;DHT22;26642;55.766;37.828;2023-06-14T13:26:40;25.30;39.30
40636;DHT22;26642;55.766;37.828;2023-06-14T13:29:06;25.30;39.30
40636;DHT22;26642;55.766;37.828;2023-06-14T13:31:32;25.30;38.30
40636;DHT22;26642;55.766;37.828;2023-06-14T13:33:58;25.30;38.40
40636;DHT22;26642;55.766;37.828;2023-06-14T13:36:24;25.20;38.20
40636;DHT22;26642;55.766;37.828;2023-06-14T13:38:50;25.20;37.80
40636;DHT22;26642;55.766;37.828;2023-06-14T13:41:18;25.20;37.90
40636;DHT22;26642;55.766;37.828;2023-06-14T13:43:44;25.20;37.90
40636;DHT22;26642;55.766;37.828;2023-06-14T13:46:10;25.10;37.90
40636;DHT22;26642;55.766;37.828;2023-06-14T13:48:36;25.10;38.40
40636;DHT22;26642;55.766;37.828;2023-06-14T13:51:02;25.20;38.60
40636;DHT22;26642;55.766;37.828;2023-06-14T13:53:30;25.20;38.60
40636;DHT22;26642;55.766;37.828;2023-06-14T13:55:56;25.20;38.90
40636;DHT22;26642;55.766;37.828;2023-06-14T13:58:22;25.20;38.20
40636;DHT22;26642;55.766;37.828;2023-06-14T14:00:49;25.20;38.20
40636;DHT22;26642;55.766;37.828;2023-06-14T14:03:16;25.10;38.10
40636;DHT22;26642;55.766;37.828;2023-06-14T14:05:42;25.10;38.40
40636;DHT22;26642;55.766;37.828;2023-06-14T14:08:08;25.20;38.80
40636;DHT22;26642;55.766;37.828;2023-06-14T14:10:34;25.20;38.50
40636;DHT22;26642;55.766;37.828;2023-06-14T14:13:00;25.20;38.20
40636;DHT22;26642;55.766;37.828;2023-06-14T14:15:27;25.10;38.10
40636;DHT22;26642;55.766;37.828;2023-06-14T14:17:55;25.10;38.20
40636;DHT22;26642;55.766;37.828;2023-06-14T14:20:23;25.10;38.70
40636;DHT22;26642;55.766;37.828;2023-06-14T14:22:49;25.10;38.10
40636;DHT22;26642;55.766;37.828;2023-06-14T14:25:15;25.10;37.80
40636;DHT22;26642;55.766;37.828;2023-06-14T14:27:41;25.10;38.30
40636;DHT22;26642;55.766;37.828;2023-06-14T14:30:07;25.10;37.80
40636;DHT22;26642;55.766;37.828;2023-06-14T14:32:33;25.00;38.00
40636;DHT22;26642;55.766;37.828;2023-06-14T14:34:59;25.10;38.20
40636;DHT22;26642;55.766;37.828;2023-06-14T14:37:25;25.10;38.60
40636;DHT22;26642;55.766;37.828;2023-06-14T14:39:51;25.10;38.40
40636;DHT22;26642;55.766;37.828;2023-06-14T14:42:17;25.10;38.40
40636;DHT22;26642;55.766;37.828;2023-06-14T14:44:44;25.10;38.20
40636;DHT22;26642;55.766;37.828;2023-06-14T14:47:10;25.10;38.30
40636;DHT22;26642;55.766;37.828;2023-06-14T14:49:36;25.10;38.10
40636;DHT22;26642;55.766;37.828;2023-06-14T14:52:02;25.10;38.40
40636;DHT22;26642;55.766;37.828;2023-06-14T14:54:28;25.10;38.00
40636;DHT22;26642;55.766;37.828;2023-06-14T14:56:54;25.00;38.10
40636;DHT22;26642;55.766;37.828;2023-06-14T14:59:20;25.00;38.10
40636;DHT22;26642;55.766;37.828;2023-06-14T15:01:47;25.00;38.10
40636;DHT22;26642;55.766;37.828;2023-06-14T15:04:13;25.00;38.50
40636;DHT22;26642;55.766;37.828;2023-06-14T15:06:39;25.00;38.20
40636;DHT22;26642;55.766;37.828;2023-06-14T15:09:06;25.00;38.40
40636;DHT22;26642;55.766;37.828;2023-06-14T15:11:32;25.00;38.60
40636;DHT22;26642;55.766;37.828;2023-06-14T15:13:58;25.10;38.90
40636;DHT22;26642;55.766;37.828;2023-06-14T15:16:24;25.10;38.60
40636;DHT22;26642;55.766;37.828;2023-06-14T15:18:50;25.10;38.90
40636;DHT22;26642;55.766;37.828;2023-06-14T15:21:16;25.10;38.40
40636;DHT22;26642;55.766;37.828;2023-06-14T15:23:46;25.10;38.60
40636;DHT22;26642;55.766;37.828;2023-06-14T15:26:12;25.00;38.90
40636;DHT22;26642;55.766;37.828;2023-06-14T15:28:38;25.00;38.60
40636;DHT22;26642;55.766;37.828;2023-06-14T15:31:04;25.00;38.50